Terminal Aerodrome Forecast
Issued by NWS

Home | Current Version | Previous Version | Text Only | Print | Product List | Glossary On
Versions: 1 2 3 4 5 6 7 8 9 10 11 12 13 14 15 16 17 18
000
FTUS43 KGRB 142300
TAFRHI
TAF
KRHI 142323Z 1500/1524 34009KT P6SM SCT040
     FM150400 31004KT P6SM SCT250
      TEMPO 1504/1508 3SM BR
     FM150800 29003KT 3SM BR SKC
      TEMPO 1508/1512 1 1/2SM BR
     FM151500 29008KT P6SM BKN035
     FM152100 28006KT P6SM SCT045=

USA.gov is the U.S. government's official web portal to all federal, state and local government web resources and services.